ADDS METAR Data INFO
IDs: Format: Raw Decoded Include TAF

Data at: 2011 UTC 18 Jul 2018

KHRJ 181955Z AUTO 36003KT CLR 32/17 A2994 RMK AO2 T03200167 PWINO
KHRJ 181935Z AUTO 35004KT CLR 32/17 A2994 RMK AO2 T03160167 PWINO
KHRJ 181915Z AUTO 04006KT CLR 31/17 A2995 RMK AO2 T03120165 PWINO
KHRJ 181855Z AUTO 06006KT SCT050 31/17 A2995 RMK AO2 T03140173 PWINO
KHRJ 181835Z AUTO 34004KT SCT050 30/18 A2996 RMK AO2 T03010179 PWINO
KHRJ 181815Z AUTO 35003KT CLR 30/18 A2996 RMK AO2 T03020176 PWINO
KHRJ 181755Z AUTO 05007KT SCT050 31/17 A2996 RMK AO2 6//// T03070166 PWINO
KHRJ 181735Z AUTO 01005KT BKN050 BKN095 29/18 A2997 RMK AO2 T02870184 PWINO
KHRJ 181715Z AUTO 04005KT BKN050 OVC070 29/18 A2997 RMK AO2 T02910179 PWINO
KHRJ 181655Z AUTO 02005KT OVC050 29/18 A2997 RMK AO2 T02900182 PWINO
KHRJ 181635Z AUTO 03009KT OVC050 29/18 A2997 RMK AO2 T02900176 PWINO
KHRJ 181615Z AUTO 03007KT BKN050 BKN075 30/19 A2998 RMK AO2 T02950188 PWINO
KHRJ 181555Z AUTO 02006KT BKN048 BKN075 29/19 A2998 RMK AO2 T02880188 PWINO
KHRJ 181535Z AUTO 01006KT 330V030 OVC046 28/18 A2998 RMK AO2 T02800184 PWINO
KHRJ 181515Z AUTO 02004G14KT BKN044 BKN050 BKN080 28/19 A2998 RMK AO2 T02810189 PWINO
KHRJ 181455Z AUTO 01010KT SCT044 SCT080 28/19 A2997 RMK AO2 T02830191 PWINO
KHRJ 181435Z AUTO 02007KT SCT041 SCT080 27/20 A2997 RMK AO2 T02740203 PWINO
KHRJ 181415Z AUTO 02005KT 10SM SCT018 SCT023 SCT041 27/21 A2997 RMK AO2 T02740212
KHRJ 181355Z AUTO 02006KT 10SM SCT018 SCT023 SCT046 27/22 A2996 RMK AO2 T02710216
KHRJ 181335Z AUTO 04010G14KT SCT014 SCT024 BKN046 26/21 A2996 RMK AO2 T02620214 PWINO
KHRJ 181315Z AUTO 04007KT 26/24 A2996 RMK AO2 T02570235 PWINO
KHRJ 181255Z AUTO 05008KT 26/24 A2996 RMK AO2 T02580240 PWINO
KHRJ 181235Z AUTO 02006KT 25/25 A2996 RMK AO2 T02510248 PWINO
KHRJ 181215Z AUTO 00000KT BKN007 BKN014 OVC095 25/25 A2995 RMK AO2 T02450245 PWINO
KHRJ 181155Z AUTO 00000KT OVC005 24/24 A2994 RMK AO2 7//// T02420242 10242 20233 PWINO
KHRJ 181135Z AUTO 00000KT BKN005 OVC011 24/24 A2994 RMK AO2 T02390239 PWINO
KHRJ 181115Z AUTO 00000KT BKN005 OVC011 24/24 A2992 RMK AO2 T02360236 PWINO
KHRJ 181055Z AUTO 00000KT OVC005 24/24 A2992 RMK AO2 T02350235 PWINO
KHRJ 181035Z AUTO 00000KT OVC003 24/24 A2990 RMK AO2 T02350235 PWINO
KHRJ 181015Z AUTO 00000KT OVC003 23/23 A2989 RMK AO2 T02330233 PWINO
KHRJ 180955Z AUTO 00000KT OVC003 23/23 A2988 RMK AO2 T02330233 PWINO
KHRJ 180935Z AUTO 00000KT OVC003 24/24 A2988 RMK AO2 T02350235 PWINO
KHRJ 180915Z AUTO 00000KT OVC003 24/24 A2987 RMK AO2 T02350235 PWINO
KHRJ 180855Z AUTO 00000KT OVC003 24/24 A2987 RMK AO2 T02350235 PWINO
KHRJ 180835Z AUTO 00000KT OVC003 24/24 A2988 RMK AO2 T02350235 PWINO
KHRJ 180815Z AUTO 00000KT OVC003 24/24 A2988 RMK AO2 T02350235 PWINO
KHRJ 180755Z AUTO 00000KT OVC003 24/24 A2988 RMK AO2 T02360236 PWINO
KHRJ 180735Z AUTO 00000KT OVC003 24/24 A2989 RMK AO2 T02360236 PWINO
KHRJ 180715Z AUTO 00000KT 24/24 A2989 RMK AO2 T02350235 PWINO
KHRJ 180655Z AUTO 00000KT 24/24 A2989 RMK AO2 T02360236 PWINO
KHRJ 180635Z AUTO 00000KT 24/24 A2989 RMK AO2 T02370237 PWINO
KHRJ 180615Z AUTO 00000KT 24/24 A2989 RMK AO2 T02370237 PWINO
KHRJ 180555Z AUTO 00000KT 24/24 A2990 RMK AO2 6//// T02390239 PWINO
KHRJ 180535Z AUTO 00000KT BKN003 24/24 A2989 RMK AO2 T02390239 PWINO
KHRJ 180515Z AUTO 20003KT BKN003 24/24 A2990 RMK AO2 T02400240 PWINO
KHRJ 180455Z AUTO 19003KT 24/24 A2990 RMK AO2 T02400240 PWINO
KHRJ 180435Z AUTO 00000KT 24/24 A2990 RMK AO2 T02400240 PWINO
KHRJ 180415Z AUTO 00000KT 24/24 A2991 RMK AO2 T02390239 PWINO
KHRJ 180355Z AUTO 00000KT 24/24 A2991 RMK AO2 P0001 T02400240 PWINO
KHRJ 180335Z AUTO 00000KT 24/24 A2991 RMK AO2 P0001 T02410241 PWINO
KHRJ 180315Z AUTO 21003KT 24/24 A2991 RMK AO2 P0001 T02400240 PWINO
KHRJ 180255Z AUTO 20003KT 24/24 A2992 RMK AO2 P0019 6//// T02410241 PWINO
KHRJ 180235Z AUTO 17005KT BKN003 BKN022 BKN037 24/24 A2994 RMK AO2 P0019 T02400240 PWINO
KHRJ 180215Z AUTO 18008KT 24/24 A2994 RMK AO2 P0015 T02410241 PWINO
KHRJ 180155Z AUTO 17008KT 130V190 24/24 A2995 RMK AO2 P0160 T02370237 PWINO
KHRJ 180135Z AUTO 10005KT 24/24 A2995 RMK AO2 P0093 T02380238 PWINO
KHRJ 180115Z AUTO 36007G15KT 24/24 A2994 RMK AO2 P0038 T02360236 PWINO
KHRJ 180055Z AUTO 03007G15KT 24/24 A2994 RMK AO2 P0084 T02400240 PWINO
KHRJ 180035Z AUTO 04015G21KT 25/24 A2992 RMK AO2 P0013 T02530235 PWINO
KHRJ 180015Z AUTO 03007KT 340V050 SCT018 SCT023 OVC050 28/23 A2989 RMK AO2 T02830229 PWINO
KHRJ 172355Z AUTO 19007KT SCT025 SCT032 OVC050 28/24 A2987 RMK AO2 T02830235 10350 20280 PWINO
KHRJ 172335Z AUTO 36006KT SCT025 BKN050 BKN070 30/24 A2987 RMK AO2 T02980237 PWINO
KHRJ 172315Z AUTO 17009KT SCT070 SCT090 31/24 A2986 RMK AO2 T03060242 PWINO
KHRJ 172255Z AUTO 17009G14KT SCT055 BKN070 OVC090 31/24 A2985 RMK AO2 T03110236 PWINO
KHRJ 172235Z AUTO 16008KT 10SM SCT080 BKN100 BKN120 31/24 A2986 RMK AO2 T03120235
KHRJ 172215Z AUTO 15008KT 10SM BKN090 BKN120 31/23 A2985 RMK AO2 T03130233 PWINO
KHRJ 172155Z AUTO 17007G14KT SCT060 BKN100 31/23 A2986 RMK AO2 T03130234 PWINO
KHRJ 172135Z AUTO 16008KT SCT060 BKN070 BKN080 32/23 A2987 RMK AO2 T03150230 PWINO
KHRJ 172115Z AUTO 20007KT SCT055 SCT075 33/22 A2987 RMK AO2 T03280215 PWINO
KHRJ 172055Z AUTO 20009KT SCT075 34/21 A2986 RMK AO2 T03440208 PWINO
KHRJ 172035Z AUTO 23009G14KT CLR 35/21 A2986 RMK AO2 T03450211 PWINO
KHRJ 172015Z AUTO 18010KT CLR 34/21 A2987 RMK AO2 T03440212 PWINO
KHRJ 171955Z AUTO 19013KT SCT048 SCT050 35/21 A2988 RMK AO2 T03470213 PWINO
KHRJ 171935Z AUTO 23005KT SCT050 34/21 A2988 RMK AO2 T03430214 PWINO
KHRJ 171915Z AUTO 24006KT SCT050 34/21 A2989 RMK AO2 T03380212 PWINO
KHRJ 171855Z AUTO 23005KT SCT045 SCT050 33/21 A2989 RMK AO2 T03340212 PWINO
KHRJ 171835Z AUTO 22006KT 200V270 SCT045 BKN060 BKN090 33/21 A2989 RMK AO2 T03320213 PWINO
KHRJ 171815Z AUTO 22006KT SCT037 SCT043 BKN090 33/22 A2990 RMK AO2 T03340218 PWINO
KHRJ 171755Z AUTO 21005KT SCT037 SCT049 33/22 A2992 RMK AO2 T03300218 10332 20247 PWINO
KHRJ 171735Z AUTO 20008KT BKN037 BKN043 BKN049 32/22 A2993 RMK AO2 T03220219 PWINO
KHRJ 171715Z AUTO 23007KT BKN033 BKN040 BKN050 32/22 A2994 RMK AO2 T03230224 PWINO
KHRJ 171655Z AUTO 20006KT SCT033 SCT040 32/22 A2995 RMK AO2 T03180219 PWINO
KHRJ 171635Z AUTO 22007KT SCT031 SCT038 32/22 A2996 RMK AO2 T03190218 PWINO
KHRJ 171615Z AUTO 23009KT 200V270 BKN033 BKN039 BKN080 31/22 A2997 RMK AO2 T03130219 PWINO
KHRJ 171555Z AUTO 22008KT BKN029 BKN038 OVC080 31/22 A2998 RMK AO2 T03090221 PWINO
KHRJ 171535Z AUTO 22007KT BKN025 BKN031 30/23 A2998 RMK AO2 T03030225 PWINO
KHRJ 171515Z AUTO 23008KT 190V290 BKN023 BKN029 30/22 A2998 RMK AO2 T02990224 PWINO
KHRJ 171455Z AUTO 20011KT BKN021 BKN029 30/23 A2998 RMK AO2 T02950226 PWINO
KHRJ 171435Z AUTO 22005KT BKN017 29/23 A2998 RMK AO2 T02850226 PWINO
KHRJ 171415Z AUTO 22005KT OVC017 28/23 A2999 RMK AO2 T02780225 PWINO
KHRJ 171355Z AUTO 21008KT BKN013 28/23 A2999 RMK AO2 T02750225 PWINO
KHRJ 171335Z AUTO 21006KT BKN011 27/22 A2999 RMK AO2 T02670224 PWINO
KHRJ 171315Z AUTO 19008KT BKN011 26/22 A2999 RMK AO2 T02620224 PWINO
KHRJ 171255Z AUTO 21006KT OVC011 26/23 A3000 RMK AO2 T02590234 PWINO
KHRJ 171235Z AUTO 22007KT BKN011 26/23 A2999 RMK AO2 T02600234 PWINO
KHRJ 171215Z AUTO 21007KT 25/24 A2999 RMK AO2 T02530235 PWINO
KHRJ 171135Z AUTO 19005KT 24/24 A2998 RMK AO2 T02400235 PWINO
KHRJ 171115Z AUTO 19005KT 24/24 A2998 RMK AO2 T02370235 PWINO
KHRJ 171055Z AUTO 20006KT 24/24 A2999 RMK AO2 T02350235 PWINO
KHRJ 171035Z AUTO 20003KT 23/23 A2998 RMK AO2 T02320232 PWINO
KHRJ 171015Z AUTO 18004KT 23/23 A2998 RMK AO2 T02300230 PWINO
KHRJ 170955Z AUTO 00000KT 23/23 A2998 RMK AO2 T02300230 PWINO
KHRJ 170935Z AUTO 00000KT 23/23 A2997 RMK AO2 T02300230 PWINO
KHRJ 170915Z AUTO 00000KT 23/23 A2997 RMK AO2 T02320230 PWINO
KHRJ 170855Z AUTO 00000KT 23/23 A2997 RMK AO2 T02320230 PWINO
KHRJ 170835Z AUTO 00000KT 23/23 A2997 RMK AO2 T02340229 PWINO
KHRJ 170815Z AUTO 00000KT 24/22 A2998 RMK AO2 T02400222 PWINO